Ana Sayfa
METAR-TAF:

METAR-TAF

Havaalanları :

Laristan Havalimanı

Lar, İran

Enlem: 27-40-26N, Boylam: 054-22-53E, yükseklik: 792 m

Güncel hava durumu gözlemi

Rapor saat 03:00 UTC de 31 dakika önce yapıldı.
Sakin rüzgar
Sıcaklık 8°C
Nem 87%
Basınç 1017 hPa
Görüş mesafesi 10 km veya daha fazla
4000 ft yükseklikte az bulutlu

METAR: OISL 200300Z 00000KT 9999 FEW040 08/06 Q1017

Saat: 07:01 (03:31 UTC)

Tahmin

Rapor saat 23:30 UTC de 4 saat ve 1 dakika önce yapıldı.
Ayın 20'si saat 00 UTC'den ayın 21'si saat 06 UTC'ye kadar geçerli Tahmin
Rüzgar kuzeybatıdan 8 kt
Görüş mesafesi: 8000 m
4000 ft yükseklikte az bulutlu
10000 ft yükseklikte parçalı çok bulutlu

TAF: OISL 192330Z 2000/2106 32008KT 8000 FEW040 BKN100

4.000'den fazla havaalanı için hava durumu gözlemleri ve tahminleri (METAR ve TAF raporları).

Kullanılabilir istasyonlar harita üzerinde sarı ve kırmızı noktalarla gösterilir.

İstasyonun adını görmek için fareyi noktanın üzerinde gezdirin.

Sonrasında hava gözlem ve tahminlerini görmek için tıklayın.

Haritayı değiştirmek için: yaklaştırmak için siyah artı işaretli yeşil düğmeye ve uzaklaştırmak için de eksi işaretli düğmeye hızla tıklayın; bitişik haritalar için yeşil okları kullanın.


METAR-TAF: